Flight Track Log - Related Links

Times and Time Zones

All times are in EDT time to prevent confusion due to time zone crossing. See the 9Y-JMA flight status page for this flight to view local times or setup timezone preferences in your user account.

Time Position Orientation Groundspeed Altitude Reporting Facility
EDT Latitude Longitude Course Direction KTS MPH feet Rate Location/Type
Wed 10:28:00 AM 8.0937 -59.4447 324° Northwest  Level Estimated
Wed 10:29:00 AM 8.2075 -59.5301 323° Northwest  Level Estimated
Wed 10:30:00 AM 8.3213 -59.6155 323° Northwest  Level Estimated
Wed 10:31:00 AM 8.4351 -59.7010 323° Northwest  Level Estimated
Wed 10:32:00 AM 8.5489 -59.7865 323° Northwest  Level Estimated
Wed 10:33:00 AM 8.6626 -59.8721 323° Northwest  Level Estimated
Wed 10:34:00 AM 8.7763 -59.9577 323° Northwest  Level Estimated
Wed 10:35:00 AM 8.8900 -60.0434 323° Northwest  Level Estimated
Wed 10:36:00 AM 9.0037 -60.1292 323° Northwest  Level Estimated
Wed 10:37:00 AM 9.1174 -60.2150 323° Northwest  Level Estimated
Wed 10:38:00 AM 9.2310 -60.3008 323° Northwest  Level Estimated
Wed 10:39:00 AM 9.3446 -60.3867 323° Northwest  Level Estimated
Wed 10:40:00 AM 9.4582 -60.4727 323° Northwest  Level Estimated
Wed 10:41:00 AM 9.5718 -60.5587 323° Northwest  Level Estimated
Wed 10:42:00 AM 9.6854 -60.6448 323° Northwest  Level Estimated
Wed 10:43:00 AM 9.7989 -60.7309 323° Northwest  Level Estimated
Wed 10:44:00 AM 9.9124 -60.8171 323° Northwest  Level Estimated
Wed 10:45:00 AM 10.0259 -60.9033 323° Northwest  Level Estimated
Wed 10:46:00 AM 10.1394 -60.9896 323° Northwest  Level Estimated
Wed 10:47:00 AM 10.2529 -61.0760 323° Northwest  Level Estimated
Wed 10:48:00 AM 10.3663 -61.1624 323° Northwest  Level Estimated
Wed 10:49:00 AM 10.4797 -61.2489 323° Northwest  Level Estimated
Wed 10:50:00 AM 10.5931 -61.3355 323° Northwest  Level Estimated
Wed 10:51:00 AM 10.5954 -61.3372 323° Northwest  Level Estimated
Wed 10:52:00 AM 10.5954 -61.3372 243° Southwest  Level Estimated
Wed 10:53:00 AM 10.5954 -61.3372 243° Southwest  Level Estimated
Wed 10:54:00 AM 10.5954 -61.3372 243° Southwest  Level Estimated
Wed 10:55:00 AM 10.5954 -61.3372 243° Southwest  Level Estimated
Wed 10:56:00 AM 10.5954 -61.3372 243° Southwest  Level Estimated
Wed 10:57:00 AM 10.5954 -61.3372 243° Southwest  Level Estimated
Wed 10:58:00 AM 10.5954 -61.3372 243° Southwest  Level Estimated
Wed 10:59:00 AM 10.5954 -61.3372 243° Southwest  Level Estimated
Wed 11:00:00 AM 10.5954 -61.3372 243° Southwest  Level Estimated
Wed 11:01:00 AM 10.5954 -61.3372 243° Southwest  Level Estimated
Wed 11:02:00 AM 10.5954 -61.3372 243° Southwest  Level Estimated
Wed 11:03:00 AM 10.5954 -61.3372 243° Southwest  Level Estimated
Wed 11:04:00 AM 10.5954 -61.3372 243° Southwest  Level Estimated
Wed 11:05:00 AM 10.5954 -61.3372 243° Southwest  Level Estimated
Wed 11:06:00 AM 10.5954 -61.3372 243° Southwest  Level Estimated

Login

Don't have an account? Register now (free) for customized features, flight alerts, and more!